Time;durP1;ratioP1;P1;durP2;ratioP2;P2;SDS_P1;SDS_P2;PMS_P1;PMS_P2;Temp;Humidity;BMP_temperature;BMP_pressure;BME280_temperature;BME280_humidity;BME280_pressure;Samples;Min_cycle;Max_cycle;Signal;HPM_P1;HPM_P2
2023/12/05 00:01:18;;;;;;;4.97;2.80;;;8.60;99.90;;;;;;5138544;27;20038;-76
2023/12/05 00:03:43;;;;;;;8.35;3.88;;;8.50;99.90;;;;;;5138746;27;20032;-76
2023/12/05 00:06:10;;;;;;;10.18;3.88;;;8.50;99.90;;;;;;5138632;27;20023;-77
2023/12/05 00:08:36;;;;;;;6.10;3.53;;;8.50;99.90;;;;;;5116582;28;20019;-79
2023/12/05 00:11:08;;;;;;;9.45;3.58;;;8.50;99.90;;;;;;5137643;27;20029;-77
2023/12/05 00:13:34;;;;;;;9.55;3.08;;;8.50;99.90;;;;;;5138670;27;20048;-76
2023/12/05 00:16:00;;;;;;;5.93;3.95;;;8.40;99.90;;;;;;5131557;27;20103;-76
2023/12/05 00:18:26;;;;;;;8.57;4.07;;;8.40;99.90;;;;;;5120047;27;20027;-75
2023/12/05 00:20:52;;;;;;;13.23;4.30;;;8.40;99.90;;;;;;5138226;27;20035;-75
2023/12/05 00:23:17;;;;;;;6.72;4.00;;;8.50;99.90;;;;;;5138363;27;20019;-77
2023/12/05 00:25:43;;;;;;;7.32;5.00;;;8.50;99.90;;;;;;5138144;27;20034;-77
2023/12/05 00:28:10;;;;;;;7.60;3.50;;;8.50;99.90;;;;;;5120115;27;20042;-77
2023/12/05 00:30:35;;;;;;;12.52;3.40;;;8.60;99.90;;;;;;5137739;27;20031;-76
2023/12/05 00:33:01;;;;;;;9.77;3.95;;;8.60;99.90;;;;;;5138383;27;20031;-75
2023/12/05 00:35:27;;;;;;;9.30;3.75;;;8.60;99.90;;;;;;5137945;27;20023;-77
2023/12/05 00:37:52;;;;;;;12.30;4.05;;;8.50;99.90;;;;;;5138090;27;20080;-74
2023/12/05 00:40:19;;;;;;;7.47;3.50;;;8.30;99.90;;;;;;5119274;27;20072;-75
2023/12/05 00:42:44;;;;;;;9.38;4.20;;;8.10;99.90;;;;;;5138054;27;20068;-77
2023/12/05 00:45:12;;;;;;;8.68;3.72;;;8.00;99.90;;;;;;5137578;27;20027;-77
2023/12/05 00:47:38;;;;;;;11.68;4.68;;;7.90;99.90;;;;;;5138123;27;20030;-77
2023/12/05 00:50:05;;;;;;;10.15;3.42;;;7.80;99.90;;;;;;5119020;27;20073;-78
2023/12/05 00:52:30;;;;;;;13.60;4.80;;;7.60;99.90;;;;;;5137841;27;20494;-79
2023/12/05 00:54:56;;;;;;;10.40;4.35;;;7.50;99.90;;;;;;5137418;27;20396;-80
2023/12/05 00:57:21;;;;;;;13.23;3.97;;;7.40;99.90;;;;;;5137884;27;20388;-77
2023/12/05 00:59:47;;;;;;;9.82;4.05;;;7.30;99.90;;;;;;5137435;27;20034;-78
2023/12/05 01:02:13;;;;;;;13.68;4.43;;;7.30;99.90;;;;;;5137711;27;20481;-79
2023/12/05 01:04:39;;;;;;;11.38;4.40;;;7.20;99.90;;;;;;5137500;27;20030;-78
2023/12/05 01:07:04;;;;;;;8.52;4.18;;;7.20;99.90;;;;;;5137393;27;20034;-79
2023/12/05 01:09:30;;;;;;;14.27;4.80;;;7.10;99.90;;;;;;5118869;27;20034;-78
2023/12/05 01:11:56;;;;;;;12.30;3.92;;;7.10;99.90;;;;;;5137592;27;20027;-77
2023/12/05 01:14:21;;;;;;;9.05;4.00;;;7.10;99.90;;;;;;5119120;27;20433;-78
2023/12/05 01:16:47;;;;;;;10.43;4.10;;;7.10;99.90;;;;;;5136695;27;20056;-77
2023/12/05 01:19:13;;;;;;;13.18;4.60;;;7.00;99.90;;;;;;5137240;27;20466;-77
2023/12/05 01:21:39;;;;;;;15.45;4.68;;;7.00;99.90;;;;;;5137248;27;20019;-77
2023/12/05 01:24:05;;;;;;;13.38;5.93;;;7.10;99.90;;;;;;5118562;27;20015;-78
2023/12/05 01:26:31;;;;;;;5.22;3.40;;;7.20;99.90;;;;;;5137359;27;20034;-75
2023/12/05 01:28:57;;;;;;;15.80;5.20;;;7.30;99.90;;;;;;5136877;27;20467;-77
2023/12/05 01:31:22;;;;;;;9.85;4.32;;;7.30;99.90;;;;;;5137041;27;20432;-79
2023/12/05 01:33:48;;;;;;;10.18;4.22;;;7.30;99.90;;;;;;5136980;27;20390;-78
2023/12/05 01:36:14;;;;;;;14.43;4.15;;;7.20;99.90;;;;;;5137054;27;20030;-77
2023/12/05 01:38:40;;;;;;;13.77;4.55;;;7.10;99.90;;;;;;5136596;27;20525;-80
2023/12/05 01:41:07;;;;;;;13.05;4.45;;;7.10;99.90;;;;;;5137063;27;20374;-78
2023/12/05 01:43:33;;;;;;;15.68;4.97;;;7.00;99.90;;;;;;5136621;27;20054;-78
2023/12/05 01:46:00;;;;;;;11.35;4.90;;;6.90;99.90;;;;;;5136870;27;20513;-79
2023/12/05 01:48:26;;;;;;;20.23;6.57;;;6.90;99.90;;;;;;5136663;27;20024;-79
2023/12/05 01:50:53;;;;;;;15.10;5.75;;;6.90;99.90;;;;;;5118298;27;20403;-77
2023/12/05 01:53:21;;;;;;;17.13;4.80;;;6.80;99.90;;;;;;5136486;27;20500;-78
2023/12/05 01:55:47;;;;;;;15.93;4.30;;;6.80;99.90;;;;;;5136694;27;20027;-76
2023/12/05 01:58:15;;;;;;;12.20;4.70;;;6.90;99.90;;;;;;5136506;27;20065;-76
2023/12/05 02:00:41;;;;;;;18.85;5.20;;;6.90;99.90;;;;;;5136479;27;20479;-78
2023/12/05 02:03:08;;;;;;;12.57;4.25;;;6.90;99.90;;;;;;5136303;27;20488;-78
2023/12/05 02:05:33;;;;;;;18.08;4.90;;;6.90;99.90;;;;;;5136054;27;20019;-79
2023/12/05 02:08:00;;;;;;;14.38;4.43;;;6.90;99.90;;;;;;5134899;27;20513;-77
2023/12/05 02:10:25;;;;;;;12.57;4.53;;;6.90;99.90;;;;;;5126283;27;20026;-78
2023/12/05 02:12:51;;;;;;;11.82;5.00;;;6.80;99.90;;;;;;5136535;27;20066;-76
2023/12/05 02:15:17;;;;;;;11.63;4.97;;;6.90;99.90;;;;;;5136392;28;20023;-74
2023/12/05 02:18:09;;;;;;;12.30;4.38;;;6.90;99.90;;;;;;5136265;27;20047;-76
2023/12/05 02:21:15;;;;;;;13.02;4.63;;;7.00;99.90;;;;;;5132841;28;20023;-75
2023/12/05 02:23:59;;;;;;;9.40;4.80;;;6.90;99.90;;;;;;5126404;28;20063;-76
2023/12/05 02:27:00;;;;;;;4.93;3.22;;;6.90;99.90;;;;;;5136645;28;20026;-76
2023/12/05 02:29:25;;;;;;;8.82;3.33;;;7.00;99.90;;;;;;5117876;28;20032;-76
2023/12/05 02:31:52;;;;;;;16.65;7.00;;;7.00;99.90;;;;;;5136442;28;20042;-74
2023/12/05 02:34:18;;;;;;;10.98;4.72;;;7.00;99.90;;;;;;5136347;28;20026;-76
2023/12/05 02:36:50;;;;;;;10.25;4.25;;;6.90;99.90;;;;;;5136124;28;20406;-76
2023/12/05 02:39:36;;;;;;;9.27;4.20;;;7.00;99.90;;;;;;5136125;28;20050;-76
2023/12/05 02:42:05;;;;;;;12.00;4.30;;;6.90;99.90;;;;;;5136153;28;20022;-76
2023/12/05 02:44:41;;;;;;;11.45;4.88;;;6.90;99.90;;;;;;5136296;28;20034;-76
2023/12/05 02:47:08;;;;;;;9.95;4.10;;;6.90;99.90;;;;;;5136250;28;20487;-76
2023/12/05 02:49:34;;;;;;;13.48;4.55;;;6.90;99.90;;;;;;5136108;28;20038;-77
2023/12/05 02:52:00;;;;;;;10.93;4.50;;;6.90;99.90;;;;;;5136065;28;20122;-76
2023/12/05 02:54:25;;;;;;;8.27;4.43;;;6.90;99.90;;;;;;5135668;28;20055;-77
2023/12/05 02:56:51;;;;;;;11.70;4.88;;;6.90;99.90;;;;;;5135928;28;20034;-76
2023/12/05 02:59:16;;;;;;;12.95;4.55;;;6.90;99.90;;;;;;5135875;28;20548;-75
2023/12/05 03:01:42;;;;;;;10.70;4.25;;;6.90;99.90;;;;;;5135738;28;20023;-79
2023/12/05 03:04:08;;;;;;;9.00;4.97;;;6.90;99.90;;;;;;5135807;28;20015;-75
2023/12/05 03:06:33;;;;;;;11.82;4.45;;;6.90;99.90;;;;;;5116196;28;20084;-76
2023/12/05 03:09:03;;;;;;;8.93;4.18;;;6.90;99.90;;;;;;5135528;28;20518;-76
2023/12/05 03:11:29;;;;;;;13.25;5.78;;;6.90;99.90;;;;;;5135857;28;20027;-79
2023/12/05 03:13:55;;;;;;;16.30;5.95;;;6.90;99.90;;;;;;5135687;28;20026;-76
2023/12/05 03:16:21;;;;;;;12.35;4.43;;;6.90;99.90;;;;;;5113791;28;20027;-75
2023/12/05 03:18:46;;;;;;;10.95;5.25;;;6.80;99.90;;;;;;5129358;28;20020;-74
2023/12/05 03:21:18;;;;;;;12.07;4.70;;;6.80;99.90;;;;;;5135774;28;20027;-75
2023/12/05 03:23:44;;;;;;;6.85;4.03;;;6.80;99.90;;;;;;5117338;28;20574;-76
2023/12/05 03:26:20;;;;;;;10.98;5.43;;;6.80;99.90;;;;;;5135849;28;20969;-76
2023/12/05 03:28:48;;;;;;;13.23;4.30;;;6.80;99.90;;;;;;5117369;28;20023;-76
2023/12/05 03:31:13;;;;;;;12.00;4.57;;;6.80;99.90;;;;;;5118534;27;20109;-76
2023/12/05 03:33:39;;;;;;;23.73;5.38;;;6.80;99.90;;;;;;5139532;27;20123;-76
2023/12/05 03:36:05;;;;;;;8.18;4.50;;;6.80;99.90;;;;;;5139584;27;20023;-76
2023/12/05 03:38:31;;;;;;;15.00;4.70;;;6.70;99.90;;;;;;5139228;27;20040;-75
2023/12/05 03:40:56;;;;;;;8.13;4.45;;;6.70;99.90;;;;;;5117264;28;20028;-76
2023/12/05 03:43:22;;;;;;;7.88;4.43;;;6.70;99.90;;;;;;5114950;28;20008;-75
2023/12/05 03:45:48;;;;;;;16.25;4.53;;;6.60;99.90;;;;;;5137168;27;20027;-76
2023/12/05 03:48:14;;;;;;;9.20;4.32;;;6.60;99.90;;;;;;5139154;27;20030;-75
2023/12/05 03:50:40;;;;;;;9.77;4.40;;;6.60;99.90;;;;;;5139112;27;20625;-74
2023/12/05 03:53:05;;;;;;;8.43;3.85;;;6.50;99.90;;;;;;5120126;27;20399;-77
2023/12/05 03:55:33;;;;;;;16.02;4.47;;;6.50;99.90;;;;;;5117074;28;20063;-76
2023/12/05 03:57:59;;;;;;;12.40;5.05;;;6.40;99.90;;;;;;5118661;27;20050;-77
2023/12/05 04:00:25;;;;;;;13.30;4.40;;;6.40;99.90;;;;;;5116509;28;20031;-75
2023/12/05 04:02:50;;;;;;;8.05;4.10;;;6.40;99.90;;;;;;5137187;27;20027;-75
2023/12/05 04:05:16;;;;;;;10.48;4.22;;;6.40;99.90;;;;;;5119166;27;20132;-75
2023/12/05 04:07:42;;;;;;;16.38;4.53;;;6.40;99.90;;;;;;5138403;27;20027;-76
2023/12/05 04:10:09;;;;;;;7.18;4.15;;;6.40;99.90;;;;;;5138559;27;20079;-76
2023/12/05 04:12:35;;;;;;;6.82;4.22;;;6.40;99.90;;;;;;5116566;28;20049;-77
2023/12/05 04:15:00;;;;;;;9.75;4.63;;;6.40;99.90;;;;;;5136869;27;20475;-76
2023/12/05 04:17:26;;;;;;;7.10;3.95;;;6.40;99.90;;;;;;5138346;27;20019;-78
2023/12/05 04:19:52;;;;;;;12.30;4.93;;;6.40;99.90;;;;;;5137321;27;20039;-76
2023/12/05 04:22:17;;;;;;;12.65;4.70;;;6.50;99.90;;;;;;5119723;27;20026;-75
2023/12/05 04:24:43;;;;;;;13.40;4.10;;;6.40;99.90;;;;;;5138456;27;20095;-79
2023/12/05 04:27:08;;;;;;;12.48;4.35;;;6.40;99.90;;;;;;5138357;27;20489;-77
2023/12/05 04:29:34;;;;;;;10.68;4.78;;;6.50;99.90;;;;;;5138143;27;20051;-83
2023/12/05 04:32:02;;;;;;;11.15;5.05;;;6.50;99.90;;;;;;5129383;27;20410;-76
2023/12/05 04:34:27;;;;;;;9.00;4.25;;;6.60;99.90;;;;;;5116270;28;20044;-77
2023/12/05 04:36:53;;;;;;;4.65;3.75;;;6.60;99.90;;;;;;5129308;27;20574;-78
2023/12/05 04:39:19;;;;;;;9.50;3.97;;;6.60;99.90;;;;;;5116064;28;20441;-77
2023/12/05 04:41:45;;;;;;;11.60;4.10;;;6.70;99.90;;;;;;5133484;27;20688;-78
2023/12/05 04:44:10;;;;;;;8.05;4.25;;;6.70;99.90;;;;;;5138330;27;20026;-77
2023/12/05 04:46:37;;;;;;;13.57;4.82;;;6.70;99.90;;;;;;5119180;27;20031;-78
2023/12/05 04:49:03;;;;;;;12.15;4.00;;;6.70;99.90;;;;;;5137977;27;20023;-77
2023/12/05 04:51:29;;;;;;;6.50;3.72;;;6.70;99.90;;;;;;5138245;27;20233;-79
2023/12/05 04:53:54;;;;;;;6.72;4.10;;;6.70;99.90;;;;;;5137700;27;20051;-79
2023/12/05 04:56:20;;;;;;;10.45;3.88;;;6.70;99.90;;;;;;5137964;27;20107;-80
2023/12/05 04:58:46;;;;;;;10.85;4.88;;;6.60;99.90;;;;;;5137474;27;20019;-79
2023/12/05 05:01:11;;;;;;;9.88;4.38;;;6.60;99.90;;;;;;5127438;27;20027;-79
2023/12/05 05:03:37;;;;;;;9.30;4.22;;;6.50;99.90;;;;;;5128601;27;20027;-81
2023/12/05 05:06:03;;;;;;;8.10;4.68;;;6.40;99.90;;;;;;5137275;27;20502;-81
2023/12/05 05:08:28;;;;;;;9.70;4.10;;;6.40;99.90;;;;;;5137183;27;20566;-81
2023/12/05 05:10:54;;;;;;;7.78;3.90;;;6.30;99.90;;;;;;5115061;28;20102;-81
2023/12/05 05:13:20;;;;;;;10.20;4.30;;;6.20;99.90;;;;;;5117350;27;20503;-81
2023/12/05 05:15:45;;;;;;;13.50;6.82;;;6.10;99.90;;;;;;5137051;27;20042;-80
2023/12/05 05:18:11;;;;;;;8.65;4.13;;;6.10;99.90;;;;;;5137376;27;20031;-77
2023/12/05 05:20:36;;;;;;;13.77;4.53;;;6.10;99.90;;;;;;5130569;27;20028;-80
2023/12/05 05:23:03;;;;;;;8.23;4.25;;;6.10;99.90;;;;;;5137173;27;20031;-80
2023/12/05 05:25:28;;;;;;;19.27;4.55;;;6.10;99.90;;;;;;5118701;27;20068;-79
2023/12/05 05:27:54;;;;;;;9.25;4.82;;;6.00;99.90;;;;;;5137256;27;20035;-77
2023/12/05 05:30:20;;;;;;;7.95;4.32;;;6.00;99.90;;;;;;5136759;27;20437;-79
2023/12/05 05:32:45;;;;;;;12.68;4.00;;;6.10;99.90;;;;;;5137428;27;20508;-75
2023/12/05 05:35:11;;;;;;;9.77;4.63;;;6.10;99.90;;;;;;5137055;27;20027;-79
2023/12/05 05:37:37;;;;;;;6.50;4.25;;;6.10;99.90;;;;;;5114789;28;20038;-77
2023/12/05 05:40:03;;;;;;;10.32;4.03;;;6.10;99.90;;;;;;5135872;27;20098;-78
2023/12/05 05:42:28;;;;;;;13.18;4.97;;;6.20;99.90;;;;;;5136934;27;20078;-77
2023/12/05 05:44:54;;;;;;;8.20;4.05;;;6.20;99.90;;;;;;5136794;27;20030;-78
2023/12/05 05:47:20;;;;;;;7.40;4.03;;;6.20;99.90;;;;;;5136841;27;20027;-77
2023/12/05 05:49:47;;;;;;;7.75;3.92;;;6.20;99.90;;;;;;5136567;27;20029;-79
2023/12/05 05:52:12;;;;;;;9.32;4.13;;;6.20;99.90;;;;;;5136622;27;20060;-77
2023/12/05 05:54:38;;;;;;;5.35;3.80;;;6.20;99.90;;;;;;5135686;27;20040;-77
2023/12/05 05:57:04;;;;;;;11.05;4.38;;;6.20;99.90;;;;;;5136705;27;20028;-77
2023/12/05 05:59:30;;;;;;;7.75;4.38;;;6.20;99.90;;;;;;5117950;27;20046;-75
2023/12/05 06:01:55;;;;;;;11.68;3.97;;;6.30;99.90;;;;;;5114935;28;20084;-76
2023/12/05 06:04:21;;;;;;;7.57;4.03;;;6.30;99.90;;;;;;5134888;27;20072;-82
2023/12/05 06:06:47;;;;;;;5.68;4.10;;;6.30;99.90;;;;;;5137214;27;20027;-80
2023/12/05 06:09:12;;;;;;;11.77;5.55;;;6.30;99.90;;;;;;5118254;27;20938;-77
2023/12/05 06:11:38;;;;;;;12.68;3.90;;;6.30;99.90;;;;;;5136520;27;20027;-77
2023/12/05 06:14:04;;;;;;;5.45;3.88;;;6.20;99.90;;;;;;5118443;27;20026;-76
2023/12/05 06:16:30;;;;;;;9.48;4.10;;;6.20;99.90;;;;;;5136560;27;20020;-77
2023/12/05 06:18:55;;;;;;;5.82;3.70;;;6.30;99.90;;;;;;5132347;27;20019;-77
2023/12/05 06:21:21;;;;;;;11.27;4.60;;;6.30;99.90;;;;;;5112214;28;20035;-77
2023/12/05 06:23:46;;;;;;;8.82;4.53;;;6.20;99.90;;;;;;5134706;28;20023;-79
2023/12/05 06:26:12;;;;;;;12.52;4.35;;;6.20;99.90;;;;;;5136293;28;20035;-75
2023/12/05 06:28:38;;;;;;;10.43;4.07;;;6.30;99.90;;;;;;5117842;28;20038;-77
2023/12/05 06:31:04;;;;;;;10.45;4.22;;;6.40;99.90;;;;;;5136185;28;20032;-77
2023/12/05 06:33:29;;;;;;;6.78;3.80;;;6.40;99.90;;;;;;5136172;28;20487;-77
2023/12/05 06:35:55;;;;;;;7.72;3.50;;;6.30;99.90;;;;;;5136349;28;20501;-76
2023/12/05 06:38:21;;;;;;;6.40;3.97;;;6.30;99.90;;;;;;5117981;28;20022;-75
2023/12/05 06:40:46;;;;;;;8.93;4.18;;;6.30;99.90;;;;;;5114592;28;20024;-82
2023/12/05 06:43:12;;;;;;;4.60;3.58;;;6.40;99.90;;;;;;5133167;28;20026;-77
2023/12/05 06:45:37;;;;;;;8.15;3.92;;;6.40;99.90;;;;;;5136121;28;20031;-77
2023/12/05 06:48:03;;;;;;;14.98;3.90;;;6.40;99.90;;;;;;5136110;28;20027;-78
2023/12/05 06:50:29;;;;;;;9.85;4.13;;;6.40;99.90;;;;;;5114392;28;20030;-79
2023/12/05 06:52:59;;;;;;;6.65;3.88;;;6.30;99.90;;;;;;5132610;28;20614;-77
2023/12/05 06:55:26;;;;;;;6.90;4.47;;;6.30;99.90;;;;;;5114224;28;20028;-78
2023/12/05 06:57:51;;;;;;;11.63;4.18;;;6.30;99.90;;;;;;5114919;28;20027;-75
2023/12/05 07:00:18;;;;;;;8.77;4.10;;;6.30;99.90;;;;;;5113939;28;20020;-76
2023/12/05 07:02:44;;;;;;;7.35;4.50;;;6.30;99.90;;;;;;5133659;28;20046;-77
2023/12/05 07:05:10;;;;;;;8.10;4.60;;;6.20;99.90;;;;;;5137494;27;20379;-77
2023/12/05 07:07:35;;;;;;;9.35;4.13;;;6.20;99.90;;;;;;5139644;27;20034;-76
2023/12/05 07:10:02;;;;;;;15.20;4.53;;;6.20;99.90;;;;;;5117792;27;20023;-77
2023/12/05 07:12:28;;;;;;;9.20;4.28;;;6.20;99.90;;;;;;5137362;27;20087;-79
2023/12/05 07:14:54;;;;;;;7.95;4.45;;;6.20;99.90;;;;;;5139926;27;20018;-78
2023/12/05 07:17:20;;;;;;;6.85;4.25;;;6.10;99.90;;;;;;5121004;27;20023;-77
2023/12/05 07:19:45;;;;;;;6.75;4.18;;;6.10;99.90;;;;;;5133579;27;20053;-78
2023/12/05 07:22:12;;;;;;;8.95;4.65;;;6.00;99.90;;;;;;5131601;27;20032;-78
2023/12/05 07:24:37;;;;;;;6.93;3.88;;;6.00;99.90;;;;;;5125882;27;20545;-77
2023/12/05 07:27:03;;;;;;;9.40;4.18;;;6.00;99.90;;;;;;5120476;27;20054;-83
2023/12/05 07:29:29;;;;;;;7.18;4.10;;;5.90;99.90;;;;;;5124748;27;20047;-81
2023/12/05 07:31:55;;;;;;;8.50;3.78;;;5.90;99.90;;;;;;5120609;27;20055;-85
2023/12/05 07:34:21;;;;;;;8.10;5.30;;;5.90;99.90;;;;;;5115897;27;20406;-82
2023/12/05 07:36:46;;;;;;;6.10;4.30;;;5.90;99.90;;;;;;5119395;27;20028;-81
2023/12/05 07:39:15;;;;;;;9.77;4.70;;;5.80;99.90;;;;;;5123958;27;20027;-81
2023/12/05 07:41:41;;;;;;;6.80;3.88;;;5.80;99.90;;;;;;5124360;27;20023;-81
2023/12/05 07:44:07;;;;;;;6.13;4.32;;;5.90;99.90;;;;;;5110967;27;20172;-82
2023/12/05 07:46:33;;;;;;;9.63;5.35;;;5.90;99.90;;;;;;5126047;27;20091;-81
2023/12/05 07:48:58;;;;;;;13.95;4.57;;;6.00;99.90;;;;;;5131751;27;20027;-84
2023/12/05 07:51:24;;;;;;;9.82;3.90;;;6.10;99.90;;;;;;5126703;27;20028;-81
2023/12/05 07:53:53;;;;;;;10.77;3.65;;;6.20;99.90;;;;;;5107399;28;20526;-81
2023/12/05 07:56:19;;;;;;;12.55;4.35;;;6.40;99.90;;;;;;5119337;27;20038;-79
2023/12/05 07:58:45;;;;;;;9.75;3.85;;;6.60;99.90;;;;;;5132136;27;20375;-81
2023/12/05 08:01:11;;;;;;;13.13;3.90;;;6.60;99.90;;;;;;5118232;27;20016;-80
2023/12/05 08:03:37;;;;;;;8.77;4.03;;;6.70;99.90;;;;;;5117730;27;20024;-79
2023/12/05 08:06:02;;;;;;;8.00;3.92;;;6.80;99.90;;;;;;5118411;27;20576;-79
2023/12/05 08:08:33;;;;;;;5.70;4.30;;;6.80;99.90;;;;;;5121163;27;20031;-79
2023/12/05 08:10:59;;;;;;;7.13;3.50;;;6.80;99.90;;;;;;5122107;27;20020;-81
2023/12/05 08:13:25;;;;;;;10.45;3.67;;;6.80;99.90;;;;;;5111240;28;20061;-85
2023/12/05 08:15:52;;;;;;;6.88;3.38;;;6.80;99.90;;;;;;5120067;27;20028;-86
2023/12/05 08:18:18;;;;;;;7.82;4.43;;;6.80;99.90;;;;;;5126692;27;20011;-83
2023/12/05 08:20:43;;;;;;;6.07;3.95;;;6.80;99.90;;;;;;5114592;27;20023;-80
2023/12/05 08:23:10;;;;;;;4.75;3.70;;;6.80;99.90;;;;;;5114667;27;20034;-78
2023/12/05 08:25:35;;;;;;;4.22;3.63;;;6.80;99.90;;;;;;5134024;27;20454;-80
2023/12/05 08:28:01;;;;;;;9.88;3.60;;;6.90;99.90;;;;;;5115817;27;20113;-79
2023/12/05 08:30:27;;;;;;;10.98;3.75;;;7.00;99.90;;;;;;5133537;27;20019;-84
2023/12/05 08:32:53;;;;;;;4.57;3.97;;;7.00;99.90;;;;;;5137372;27;20462;-80
2023/12/05 08:35:19;;;;;;;9.02;4.35;;;7.10;99.90;;;;;;5118353;27;20030;-82
2023/12/05 08:37:45;;;;;;;6.55;3.58;;;7.20;99.90;;;;;;5136007;27;20023;-83
2023/12/05 08:40:11;;;;;;;9.85;3.85;;;7.20;99.90;;;;;;5114506;28;20068;-77
2023/12/05 08:42:39;;;;;;;5.35;4.25;;;7.30;99.90;;;;;;5118386;27;20035;-81
2023/12/05 08:45:05;;;;;;;5.18;3.80;;;7.30;99.90;;;;;;5136832;27;20047;-79
2023/12/05 08:47:30;;;;;;;7.78;4.07;;;7.40;99.90;;;;;;5136223;27;20015;-78
2023/12/05 08:49:56;;;;;;;7.57;4.00;;;7.40;99.90;;;;;;5118085;27;20100;-79
2023/12/05 08:52:21;;;;;;;9.13;3.55;;;7.50;99.90;;;;;;5117071;27;20031;-81
2023/12/05 08:54:47;;;;;;;7.93;3.97;;;7.50;99.90;;;;;;5136533;27;20055;-80
2023/12/05 08:57:13;;;;;;;4.72;4.05;;;7.60;99.90;;;;;;5136820;27;20694;-79
2023/12/05 08:59:38;;;;;;;31.88;15.10;;;7.70;99.90;;;;;;5128001;27;20112;-83
2023/12/05 09:02:04;;;;;;;7.25;3.75;;;7.70;99.90;;;;;;5135141;27;20049;-82
2023/12/05 09:04:30;;;;;;;7.00;2.70;;;7.80;99.90;;;;;;5137128;27;20023;-78
2023/12/05 09:06:55;;;;;;;7.32;3.80;;;7.80;99.90;;;;;;5135527;27;20093;-88
2023/12/05 09:09:21;;;;;;;4.85;3.20;;;7.90;99.90;;;;;;5136522;27;20019;-83
2023/12/05 09:11:46;;;;;;;6.60;3.80;;;8.00;99.90;;;;;;5136426;27;20046;-79
2023/12/05 09:14:12;;;;;;;7.07;3.33;;;8.00;99.90;;;;;;5118037;27;20157;-82
2023/12/05 09:16:38;;;;;;;11.05;4.22;;;8.10;99.90;;;;;;5136116;27;20027;-78
2023/12/05 09:19:04;;;;;;;5.93;3.15;;;8.10;99.90;;;;;;5134566;27;20019;-84
2023/12/05 09:21:29;;;;;;;24.15;4.10;;;8.20;99.90;;;;;;5136374;27;20034;-79
2023/12/05 09:23:55;;;;;;;6.38;3.20;;;8.30;99.90;;;;;;5136713;27;20026;-83
2023/12/05 09:26:21;;;;;;;16.58;3.75;;;8.30;99.90;;;;;;5112444;27;20024;-84
2023/12/05 09:28:46;;;;;;;7.05;3.30;;;8.40;99.90;;;;;;5116832;27;20019;-85
2023/12/05 09:31:12;;;;;;;5.00;3.15;;;8.40;99.90;;;;;;5135593;27;20494;-82
2023/12/05 09:33:38;;;;;;;3.72;3.20;;;8.50;99.90;;;;;;5135101;27;20027;-82
2023/12/05 09:36:04;;;;;;;6.55;3.08;;;8.60;99.90;;;;;;5132262;27;20475;-86
2023/12/05 09:38:30;;;;;;;6.95;3.00;;;8.70;99.90;;;;;;5132342;27;20018;-79
2023/12/05 09:40:57;;;;;;;7.47;3.75;;;8.70;99.90;;;;;;5136477;27;20404;-78
2023/12/05 09:43:23;;;;;;;8.80;3.22;;;8.80;99.90;;;;;;5136355;27;20134;-80
2023/12/05 09:45:58;;;;;;;7.10;3.15;;;8.90;99.90;;;;;;5135499;27;20031;-81
2023/12/05 09:48:28;;;;;;;5.82;2.88;;;9.00;99.90;;;;;;5136109;27;20019;-83
2023/12/05 09:50:55;;;;;;;5.75;2.85;;;9.00;99.90;;;;;;5134845;27;20582;-80
2023/12/05 09:53:23;;;;;;;4.57;2.70;;;9.00;99.90;;;;;;5135966;27;20046;-81
2023/12/05 09:55:49;;;;;;;17.15;3.80;;;9.10;99.90;;;;;;5116837;27;20054;-78
2023/12/05 09:58:16;;;;;;;5.35;2.72;;;9.20;99.90;;;;;;5117585;27;20088;-83
2023/12/05 10:00:45;;;;;;;13.05;2.92;;;9.30;99.90;;;;;;5135603;27;20027;-85
2023/12/05 10:03:13;;;;;;;9.15;3.00;;;9.40;99.90;;;;;;5116896;27;20772;-80
2023/12/05 10:05:42;;;;;;;7.45;3.42;;;9.50;99.90;;;;;;5115995;27;20053;-78
2023/12/05 10:08:08;;;;;;;4.90;2.92;;;9.60;99.90;;;;;;5133264;27;20049;-86
2023/12/05 10:10:38;;;;;;;3.13;2.60;;;9.70;99.90;;;;;;5117362;28;20527;-77
2023/12/05 10:13:05;;;;;;;4.30;2.50;;;9.80;99.90;;;;;;5135410;27;20042;-77
2023/12/05 10:15:31;;;;;;;5.60;2.70;;;9.80;99.90;;;;;;5128074;27;20039;-78
2023/12/05 10:17:58;;;;;;;29.10;10.50;;;9.80;99.90;;;;;;5134128;28;20023;-81
2023/12/05 10:20:24;;;;;;;3.25;2.30;;;9.70;99.90;;;;;;5129973;28;20061;-80
2023/12/05 10:22:52;;;;;;;6.05;2.70;;;9.60;99.90;;;;;;5131921;28;20479;-82
2023/12/05 10:25:18;;;;;;;5.57;2.90;;;9.60;99.90;;;;;;5113080;28;20027;-77
2023/12/05 10:27:44;;;;;;;8.48;3.90;;;9.60;99.90;;;;;;5133514;28;20026;-78
2023/12/05 10:30:10;;;;;;;5.75;2.83;;;9.70;99.90;;;;;;5133407;28;20029;-80
2023/12/05 10:32:37;;;;;;;9.90;3.50;;;9.90;99.90;;;;;;5114917;28;20098;-78
2023/12/05 10:35:03;;;;;;;4.45;2.70;;;10.00;99.90;;;;;;5129121;28;20068;-79
2023/12/05 10:37:29;;;;;;;47.22;14.52;;;10.00;99.90;;;;;;5116051;28;20011;-78
2023/12/05 10:39:56;;;;;;;4.50;2.72;;;10.00;99.90;;;;;;5136003;27;20074;-74
2023/12/05 10:42:26;;;;;;;9.00;3.25;;;10.10;99.90;;;;;;5119589;27;20035;-80
2023/12/05 10:44:51;;;;;;;8.82;3.30;;;10.20;99.90;;;;;;5136220;27;20038;-81
2023/12/05 10:47:17;;;;;;;5.05;2.67;;;10.40;99.90;;;;;;5138556;27;20384;-80
2023/12/05 10:49:43;;;;;;;6.18;2.70;;;10.50;99.90;;;;;;5120589;27;21390;-79
2023/12/05 10:52:12;;;;;;;4.47;2.97;;;10.60;99.90;;;;;;5120235;27;20023;-77
2023/12/05 10:54:42;;;;;;;6.43;2.65;;;10.80;99.90;;;;;;5137232;27;20051;-80
2023/12/05 10:57:10;;;;;;;4.72;2.78;;;11.00;99.90;;;;;;5133533;27;20037;-79
2023/12/05 10:59:37;;;;;;;6.35;2.80;;;11.00;99.90;;;;;;5135687;27;20034;-82
2023/12/05 11:02:13;;;;;;;10.77;3.17;;;11.00;99.90;;;;;;5119195;27;20551;-80
2023/12/05 11:04:43;;;;;;;5.57;2.50;;;11.10;99.90;;;;;;5137199;27;20023;-81
2023/12/05 11:07:10;;;;;;;12.90;2.70;;;11.20;99.90;;;;;;5133692;27;20103;-77
2023/12/05 11:09:40;;;;;;;2.30;2.10;;;11.20;99.90;;;;;;5114098;27;20043;-77
2023/12/05 11:12:08;;;;;;;2.88;2.00;;;11.00;99.90;;;;;;5134706;27;20029;-80
2023/12/05 11:14:45;;;;;;;5.78;2.10;;;10.90;99.90;;;;;;5112505;27;20031;-78
2023/12/05 11:17:17;;;;;;;8.50;4.45;;;10.70;99.90;;;;;;5128344;27;20027;-80
2023/12/05 11:20:24;;;;;;;4.93;4.00;;;10.70;99.90;;;;;;5133741;27;20041;-78
2023/12/05 11:23:04;;;;;;;3.35;2.00;;;10.70;99.90;;;;;;5130131;27;20027;-85
2023/12/05 11:25:50;;;;;;;10.75;3.28;;;10.80;99.90;;;;;;5109306;27;20130;-79
2023/12/05 11:28:58;;;;;;;6.93;3.45;;;10.90;99.90;;;;;;5113806;27;20470;-79
2023/12/05 11:31:29;;;;;;;5.20;3.00;;;11.00;99.90;;;;;;5085976;27;20522;-81
2023/12/05 11:34:27;;;;;;;3.28;2.33;;;11.20;99.90;;;;;;5131903;27;20036;-80
2023/12/05 11:37:04;;;;;;;5.30;2.85;;;11.00;99.90;;;;;;5131008;27;20031;-82
2023/12/05 11:39:30;;;;;;;5.22;2.50;;;10.90;99.90;;;;;;5127176;27;20027;-78
2023/12/05 11:42:07;;;;;;;5.03;2.97;;;10.80;99.90;;;;;;5131391;27;20023;-79
2023/12/05 11:44:40;;;;;;;26.33;12.07;;;10.80;99.90;;;;;;5131860;27;20019;-78
2023/12/05 11:47:23;;;;;;;7.55;2.70;;;10.70;99.90;;;;;;5124602;27;21463;-83
2023/12/05 11:49:55;;;;;;;3.65;2.20;;;10.70;99.90;;;;;;5113230;27;20023;-82
2023/12/05 11:52:22;;;;;;;4.00;1.92;;;10.60;99.90;;;;;;5113045;27;20023;-76
2023/12/05 11:54:48;;;;;;;4.70;2.20;;;10.60;99.90;;;;;;5094213;28;20091;-80
2023/12/05 11:57:18;;;;;;;3.65;2.60;;;10.60;99.90;;;;;;5090436;28;20047;-83
2023/12/05 11:59:46;;;;;;;6.63;2.70;;;10.60;99.90;;;;;;5090644;28;20025;-80
2023/12/05 12:02:17;;;;;;;4.30;2.67;;;10.70;99.90;;;;;;5088789;28;20031;-84
2023/12/05 12:04:45;;;;;;;3.20;2.40;;;10.70;99.90;;;;;;5090894;28;20024;-82
2023/12/05 12:07:11;;;;;;;3.22;1.98;;;10.70;99.90;;;;;;5090344;28;20095;-81
2023/12/05 12:09:39;;;;;;;2.72;1.98;;;10.80;99.90;;;;;;5092791;28;20613;-79
2023/12/05 12:12:06;;;;;;;2.88;2.38;;;10.90;99.90;;;;;;5086924;28;20119;-76
2023/12/05 12:14:32;;;;;;;6.85;2.63;;;11.00;99.90;;;;;;5087893;28;20069;-78
2023/12/05 12:16:59;;;;;;;3.35;2.05;;;11.10;99.90;;;;;;5087329;28;20028;-81
2023/12/05 12:19:25;;;;;;;4.05;2.30;;;11.10;99.90;;;;;;5082763;28;20028;-77
2023/12/05 12:21:51;;;;;;;2.95;2.15;;;11.10;99.90;;;;;;5089743;28;20020;-80
2023/12/05 12:24:24;;;;;;;2.25;2.05;;;11.10;99.90;;;;;;5094689;28;20035;-82
2023/12/05 12:26:58;;;;;;;14.07;5.55;;;11.10;99.90;;;;;;5089142;28;20097;-80
2023/12/05 12:29:24;;;;;;;7.10;2.20;;;11.00;99.90;;;;;;5088982;28;20028;-80
2023/12/05 12:31:52;;;;;;;4.75;2.30;;;11.00;99.90;;;;;;5089478;28;20031;-82
2023/12/05 12:34:26;;;;;;;100.47;34.08;;;10.90;99.90;;;;;;5089238;28;20114;-83
2023/12/05 12:36:52;;;;;;;7.85;4.25;;;10.90;99.90;;;;;;5089985;28;20050;-77
2023/12/05 12:39:19;;;;;;;7.40;2.00;;;10.80;99.90;;;;;;5090357;28;20024;-81
2023/12/05 12:41:46;;;;;;;7.57;2.10;;;10.80;99.90;;;;;;5090832;28;20119;-85
2023/12/05 12:44:18;;;;;;;4.97;2.40;;;10.80;99.90;;;;;;5087181;28;20476;-84
2023/12/05 12:46:45;;;;;;;4.13;2.20;;;10.90;99.90;;;;;;5088520;28;20024;-85
2023/12/05 12:49:11;;;;;;;5.20;2.20;;;11.00;99.90;;;;;;5091868;28;20043;-82
2023/12/05 12:51:40;;;;;;;6.28;2.60;;;11.00;99.90;;;;;;5088958;28;20860;-80